Terminal Aerodrome Forecast
Issued by NWS

Home | Current Version | Previous Version | Text Only | Print | Product List | Glossary On
Versions: 1 2 3 4 5 6 7 8 9 10 11 12 13 14 15 16 17 18 19 20 21 22 23 24 25 26 27 28 29 30 31 32 33 34 35 36 37
000
FTUS43 KDLH 020300 AAD
TAFBRD
TAF AMD
KBRD 020334Z 0204/0224 17005KT 4SM BR OVC004
     FM020600 16003KT 2SM BR OVC003
     FM020800 VRB03KT 3/4SM BR OVC002
     FM021300 VRB02KT 1SM BR BKN002
     FM021500 29005KT P6SM SCT010 BKN050
     FM022000 27005KT P6SM OVC050=

USA.gov is the U.S. government's official web portal to all federal, state and local government web resources and services.